Time;durP1;ratioP1;P1;durP2;ratioP2;P2;SDS_P1;SDS_P2;PMS_P1;PMS_P2;Temp;Humidity;BMP_temperature;BMP_pressure;BME280_temperature;BME280_humidity;BME280_pressure;Samples;Min_cycle;Max_cycle;Signal;HPM_P1;HPM_P2
2022/12/29 00:02:15;;;;;;;9.80;5.93;;;;;;;-0.97;100.00;98827.72;5048996;28;20128;-64
2022/12/29 00:04:41;;;;;;;10.70;6.67;;;;;;;-1.05;100.00;98836.72;5063454;28;20064;-66
2022/12/29 00:07:07;;;;;;;10.23;6.30;;;;;;;-1.18;100.00;98827.09;5062732;28;20044;-64
2022/12/29 00:09:34;;;;;;;10.10;5.90;;;;;;;-1.38;100.00;98805.50;5061327;28;20045;-66
2022/12/29 00:12:01;;;;;;;13.10;6.70;;;;;;;-1.31;100.00;98827.53;5059771;28;20036;-65
2022/12/29 00:17:12;;;;;;;17.23;8.40;;;;;;;-1.48;100.00;98834.53;5062528;28;20082;-64
2022/12/29 00:36:27;;;;;;;12.27;6.70;;;;;;;-1.66;100.00;98839.00;5060627;28;20095;-65
2022/12/29 00:44:34;;;;;;;11.23;6.10;;;;;;;-1.88;100.00;98827.41;5074239;28;20044;-64
2022/12/29 00:47:02;;;;;;;19.27;10.20;;;;;;;-1.78;100.00;98847.81;5068418;28;20098;-65
2022/12/29 00:49:31;;;;;;;37.80;19.13;;;;;;;-1.77;100.00;98849.50;5064742;28;20541;-65
2022/12/29 00:52:05;;;;;;;20.43;12.50;;;;;;;-1.67;100.00;98854.03;5059804;28;20048;-64
2022/12/29 00:54:33;;;;;;;16.53;8.40;;;;;;;-1.70;100.00;98858.97;5060141;28;20150;-64
2022/12/29 00:56:59;;;;;;;14.60;8.00;;;;;;;-1.77;100.00;98846.97;5044655;28;20041;-65
2022/12/29 00:59:25;;;;;;;10.40;6.70;;;;;;;-1.69;100.00;98846.41;5060954;28;20033;-64
2022/12/29 01:01:52;;;;;;;11.67;6.83;;;;;;;-1.73;100.00;98851.28;5063262;28;20134;-65
2022/12/29 01:04:19;;;;;;;11.80;5.47;;;;;;;-1.76;100.00;98848.69;5044029;28;20041;-65
2022/12/29 01:06:45;;;;;;;9.40;6.60;;;;;;;-1.83;100.00;98831.72;5059265;28;20040;-65
2022/12/29 01:11:56;;;;;;;14.25;7.20;;;;;;;-1.81;100.00;98852.72;5057376;28;20098;-65
2022/12/29 01:14:22;;;;;;;15.40;7.10;;;;;;;-2.01;100.00;98835.34;5058305;28;20045;-65
2022/12/29 01:16:48;;;;;;;18.60;8.67;;;;;;;-1.94;100.00;98864.00;5059752;28;20059;-65
2022/12/29 01:19:17;;;;;;;8.90;5.43;;;;;;;-2.07;100.00;98842.66;5063636;28;20055;-68
2022/12/29 01:21:43;;;;;;;12.37;6.43;;;;;;;-2.03;100.00;98869.56;5058636;28;20438;-67
2022/12/29 01:24:09;;;;;;;10.00;6.53;;;;;;;-2.12;100.00;98854.19;5060555;28;20044;-65
2022/12/29 01:26:35;;;;;;;13.93;8.20;;;;;;;-2.09;100.00;98871.91;5059783;28;20048;-64
2022/12/29 01:29:00;;;;;;;11.83;8.00;;;;;;;-2.23;100.00;98847.94;5056186;28;20593;-65
2022/12/29 01:31:26;;;;;;;13.37;7.17;;;;;;;-2.16;100.00;98866.56;5066647;28;20549;-69
2022/12/29 01:33:52;;;;;;;14.07;8.97;;;;;;;-2.17;100.00;98860.72;5048522;28;20275;-65
2022/12/29 01:36:19;;;;;;;7.97;5.40;;;;;;;-2.12;100.00;98860.91;5051635;28;20535;-68
2022/12/29 01:38:44;;;;;;;7.17;4.77;;;;;;;-2.16;100.00;98859.91;5054229;28;20036;-64
2022/12/29 01:41:15;;;;;;;8.50;4.73;;;;;;;-2.19;100.00;98862.31;5063221;28;20055;-65
2022/12/29 01:43:56;;;;;;;8.17;5.63;;;;;;;-2.24;100.00;98857.94;5047305;28;20047;-65
2022/12/29 01:46:23;;;;;;;8.73;5.30;;;;;;;-2.27;100.00;98855.31;5062071;28;20066;-64
2022/12/29 01:48:53;;;;;;;8.90;4.07;;;;;;;-2.29;100.00;98851.91;5062882;28;20048;-64
2022/12/29 01:51:22;;;;;;;7.63;5.20;;;;;;;-2.35;100.00;98855.91;5062486;28;20068;-63
2022/12/29 01:53:49;;;;;;;6.10;4.20;;;;;;;-2.26;100.00;98852.03;5052282;28;20029;-65
2022/12/29 01:56:19;;;;;;;8.20;4.30;;;;;;;-2.36;100.00;98828.25;5065590;28;20050;-64
2022/12/29 01:58:50;;;;;;;9.83;4.90;;;;;;;-2.19;100.00;98842.22;5058184;28;20044;-63
2022/12/29 02:01:19;;;;;;;9.10;4.60;;;;;;;-2.28;100.00;98849.44;5063244;28;20158;-63
2022/12/29 02:03:45;;;;;;;10.40;5.07;;;;;;;-2.35;100.00;98845.03;5063568;28;20043;-63
2022/12/29 02:06:17;;;;;;;6.57;4.73;;;;;;;-2.53;100.00;98814.25;5051493;28;20033;-64
2022/12/29 02:08:46;;;;;;;9.27;4.20;;;;;;;-2.45;100.00;98832.94;5062007;28;20054;-65
2022/12/29 02:11:12;;;;;;;8.37;4.23;;;;;;;-2.65;100.00;98801.28;5067460;28;20041;-63
2022/12/29 02:13:38;;;;;;;6.80;4.57;;;;;;;-2.51;100.00;98820.19;5064028;28;20060;-64
2022/12/29 02:16:29;;;;;;;7.73;5.27;;;;;;;-2.67;100.00;98795.38;5061998;28;20044;-64
2022/12/29 02:19:29;;;;;;;7.40;4.67;;;;;;;-2.55;100.00;98816.72;5064605;28;20491;-65
2022/12/29 02:22:13;;;;;;;9.07;4.87;;;;;;;-2.57;100.00;98818.31;5062803;28;20045;-64
2022/12/29 02:24:55;;;;;;;11.93;5.37;;;;;;;-2.70;100.00;98795.25;5077666;28;20049;-65
2022/12/29 02:27:35;;;;;;;11.83;4.37;;;;;;;-2.60;100.00;98818.22;5062188;28;20144;-64
2022/12/29 02:30:07;;;;;;;11.60;5.03;;;;;;;-2.72;100.00;98787.69;5046058;28;20044;-64
2022/12/29 02:33:12;;;;;;;8.43;4.80;;;;;;;-2.55;100.00;98826.75;5062394;28;20518;-64
2022/12/29 02:36:04;;;;;;;7.07;4.50;;;;;;;-2.55;100.00;98824.25;5059503;28;20057;-64
2022/12/29 02:39:11;;;;;;;9.80;4.70;;;;;;;-2.52;100.00;98829.38;5061426;28;20063;-63
2022/12/29 02:41:55;;;;;;;8.30;5.00;;;;;;;-2.57;100.00;98830.84;5021968;28;20061;-63
2022/12/29 02:44:34;;;;;;;7.18;4.63;;;;;;;-2.61;100.00;98831.56;5006946;28;20135;-64
2022/12/29 02:47:10;;;;;;;8.67;5.00;;;;;;;-2.65;100.00;98826.38;5006358;28;20135;-63
2022/12/29 02:49:46;;;;;;;13.67;5.00;;;;;;;-2.77;100.00;98805.06;5007134;28;20054;-64
2022/12/29 02:52:22;;;;;;;8.00;4.83;;;;;;;-2.67;100.00;98831.31;5019561;28;20076;-65
2022/12/29 02:54:49;;;;;;;9.00;4.90;;;;;;;-2.76;100.00;98811.78;4995590;28;20612;-63
2022/12/29 02:57:30;;;;;;;8.13;4.67;;;;;;;-2.69;100.00;98825.41;5006425;28;20057;-64
2022/12/29 03:00:01;;;;;;;10.87;5.33;;;;;;;-2.70;100.00;98820.31;4991663;28;20051;-64
2022/12/29 03:02:42;;;;;;;9.73;5.47;;;;;;;-2.71;100.00;98823.63;5020984;28;20054;-64
2022/12/29 03:05:30;;;;;;;10.27;5.07;;;;;;;-2.68;100.00;98821.25;5020974;28;20049;-68
2022/12/29 03:08:22;;;;;;;9.83;4.37;;;;;;;-2.72;100.00;98822.81;5019908;28;20049;-64
2022/12/29 03:11:05;;;;;;;6.13;4.70;;;;;;;-2.82;100.00;98815.72;5005575;28;20428;-64
2022/12/29 03:16:47;;;;;;;9.77;4.97;;;;;;;-2.73;100.00;98817.72;5054147;28;20052;-66
2022/12/29 03:19:41;;;;;;;7.33;4.70;;;;;;;-2.64;100.00;98813.88;5060395;28;20045;-66
2022/12/29 03:22:27;;;;;;;7.38;4.93;;;;;;;-2.66;100.00;98812.97;5063880;28;20056;-67
2022/12/29 03:25:25;;;;;;;7.80;4.67;;;;;;;-2.66;100.00;98819.63;5068176;28;20048;-69
2022/12/29 03:27:55;;;;;;;5.80;4.23;;;;;;;-2.68;100.00;98821.25;5064549;28;20053;-66
2022/12/29 03:30:22;;;;;;;6.77;4.33;;;;;;;-2.70;100.00;98821.19;5064405;28;20040;-67
2022/12/29 03:32:55;;;;;;;9.30;4.43;;;;;;;-2.70;100.00;98822.84;5053987;28;20167;-68
2022/12/29 03:35:26;;;;;;;8.25;4.85;;;;;;;-2.86;100.00;98807.25;5063915;28;20051;-66
2022/12/29 03:38:10;;;;;;;7.87;5.03;;;;;;;-2.76;100.00;98824.31;5051922;28;20045;-66
2022/12/29 03:40:40;;;;;;;7.50;4.83;;;;;;;-2.90;100.00;98805.44;5066689;28;20055;-68
2022/12/29 03:43:07;;;;;;;10.33;5.20;;;;;;;-2.73;100.00;98832.75;5060619;28;20071;-67
2022/12/29 03:45:34;;;;;;;12.03;6.03;;;;;;;-2.63;100.00;98843.16;5058106;28;20037;-67
2022/12/29 03:48:00;;;;;;;12.67;5.83;;;;;;;-2.66;100.00;98843.06;5064694;28;20055;-67
2022/12/29 03:50:26;;;;;;;10.67;5.00;;;;;;;-2.88;100.00;98796.28;5064761;28;20044;-64
2022/12/29 03:52:52;;;;;;;14.03;5.03;;;;;;;-2.79;100.00;98816.69;5060513;28;20084;-66
2022/12/29 03:55:18;;;;;;;9.33;4.37;;;;;;;-2.69;100.00;98837.09;5065243;28;20180;-66
2022/12/29 03:57:43;;;;;;;8.37;5.13;;;;;;;-2.71;100.00;98842.03;5051103;28;20101;-66
2022/12/29 04:00:14;;;;;;;10.93;4.73;;;;;;;-2.84;100.00;98814.81;5042482;28;20072;-67
2022/12/29 04:02:47;;;;;;;10.77;5.57;;;;;;;-2.68;100.00;98829.63;5048638;28;20056;-66
2022/12/29 04:05:19;;;;;;;10.83;5.73;;;;;;;-2.67;100.00;98817.94;5060808;28;20048;-66
2022/12/29 04:07:44;;;;;;;9.63;4.30;;;;;;;-2.29;100.00;98831.84;5063025;28;20144;-65
2022/12/29 04:10:10;;;;;;;11.50;5.03;;;;;;;-2.33;100.00;98833.34;5059529;28;20029;-65
2022/12/29 04:12:37;;;;;;;9.93;5.50;;;;;;;-2.14;100.00;98835.72;5046475;28;20514;-66
2022/12/29 04:15:03;;;;;;;9.57;5.07;;;;;;;-1.89;100.00;98829.84;5065527;28;20048;-71
2022/12/29 04:17:30;;;;;;;9.13;5.00;;;;;;;-2.13;100.00;98816.50;5048942;28;20493;-70
2022/12/29 04:20:59;;;;;;;8.40;4.83;;;;;;;-2.34;100.00;98806.56;5050147;28;20098;-71
2022/12/29 04:22:41;;;;;;;11.03;4.77;;;;;;;-2.08;100.00;98810.78;5049592;28;20129;-70
2022/12/29 04:25:07;;;;;;;9.53;5.37;;;;;;;-1.94;100.00;98839.75;5065773;28;20146;-68
2022/12/29 04:27:33;;;;;;;11.33;5.03;;;;;;;-2.16;100.00;98828.91;5059666;28;20048;-68
2022/12/29 04:30:21;;;;;;;11.67;5.47;;;;;;;-2.49;100.00;98806.03;5055699;28;20052;-67
2022/12/29 04:32:59;;;;;;;13.53;6.10;;;;;;;-2.45;100.00;98827.91;5065908;28;20254;-66
2022/12/29 04:35:24;;;;;;;11.63;5.30;;;;;;;-2.59;100.00;98812.41;5049327;28;20514;-66
2022/12/29 04:37:50;;;;;;;9.67;5.03;;;;;;;-2.66;100.00;98820.50;5045496;28;20040;-66
2022/12/29 04:40:16;;;;;;;8.40;4.17;;;;;;;-2.71;100.00;98818.59;5058177;28;20040;-64
2022/12/29 04:42:41;;;;;;;9.73;4.93;;;;;;;-2.84;100.00;98792.22;5047646;28;20078;-65
2022/12/29 04:45:08;;;;;;;12.13;4.67;;;;;;;-2.83;100.00;98791.44;5050209;28;20531;-65
2022/12/29 04:47:49;;;;;;;11.30;4.80;;;;;;;-2.73;100.00;98812.69;5059630;28;20384;-64
2022/12/29 04:50:41;;;;;;;8.03;4.50;;;;;;;-2.78;100.00;98818.41;5022888;28;20583;-67
2022/12/29 04:53:17;;;;;;;9.27;4.90;;;;;;;-2.76;100.00;98820.97;5007915;28;20038;-65
2022/12/29 04:55:43;;;;;;;9.17;4.60;;;;;;;-2.82;100.00;98814.09;5024200;28;20084;-65
2022/12/29 04:58:09;;;;;;;11.50;4.43;;;;;;;-2.80;100.00;98811.63;5003371;28;20060;-66
2022/12/29 05:00:35;;;;;;;15.33;5.00;;;;;;;-2.86;100.00;98791.34;5007039;28;20099;-66
2022/12/29 05:03:01;;;;;;;9.53;4.60;;;;;;;-2.80;100.00;98799.91;5006758;28;20101;-66
2022/12/29 05:05:28;;;;;;;10.87;5.07;;;;;;;-2.81;100.00;98803.25;5004436;28;20065;-65
2022/12/29 05:07:53;;;;;;;13.73;4.83;;;;;;;-2.85;100.00;98806.44;5024848;28;20544;-65
2022/12/29 05:10:19;;;;;;;10.50;5.10;;;;;;;-3.00;100.00;98785.81;5007499;28;20041;-65
2022/12/29 05:12:46;;;;;;;7.87;4.07;;;;;;;-3.02;100.00;98779.06;5007533;28;20205;-64
2022/12/29 05:15:13;;;;;;;8.43;5.60;;;;;;;-3.03;100.00;98783.22;4990900;28;20136;-64
2022/12/29 05:17:39;;;;;;;12.83;5.50;;;;;;;-2.88;100.00;98816.34;5006300;28;20037;-66
2022/12/29 05:20:07;;;;;;;10.67;4.27;;;;;;;-3.04;100.00;98796.53;4990629;28;20578;-65
2022/12/29 05:22:33;;;;;;;9.67;4.50;;;;;;;-3.09;100.00;98805.53;5006946;28;20602;-65
2022/12/29 05:24:58;;;;;;;12.00;5.57;;;;;;;-3.00;100.00;98815.91;5010975;28;20053;-65
2022/12/29 05:27:25;;;;;;;9.87;5.80;;;;;;;-2.97;100.00;98823.53;5032734;28;20048;-66
2022/12/29 05:29:59;;;;;;;9.73;5.23;;;;;;;-2.98;100.00;98821.00;5060695;28;20074;-65
2022/12/29 05:32:25;;;;;;;9.73;4.57;;;;;;;-2.96;100.00;98821.88;5064608;28;20090;-65
2022/12/29 05:34:52;;;;;;;11.53;5.13;;;;;;;-3.06;100.00;98809.81;5061997;28;20033;-66
2022/12/29 05:37:17;;;;;;;10.07;4.17;;;;;;;-3.04;100.00;98831.63;5061546;28;20072;-66
2022/12/29 05:39:43;;;;;;;7.70;5.10;;;;;;;-3.02;100.00;98827.56;5069632;28;20037;-66
2022/12/29 05:42:09;;;;;;;9.33;4.40;;;;;;;-3.11;100.00;98817.16;5064229;28;20044;-66
2022/12/29 05:45:09;;;;;;;8.83;4.60;;;;;;;-3.02;100.00;98826.69;5056025;28;20049;-65
2022/12/29 05:47:53;;;;;;;8.98;2.75;;;;;;;-3.08;100.00;98834.81;5062105;28;20095;-64
2022/12/29 05:50:30;;;;;;;9.67;4.63;;;;;;;-3.37;100.00;98783.59;5065066;28;20052;-65
2022/12/29 05:53:17;;;;;;;8.23;4.57;;;;;;;-3.11;100.00;98836.38;5063140;28;20503;-65
2022/12/29 05:55:46;;;;;;;10.27;5.00;;;;;;;-3.09;100.00;98829.75;5083552;28;20039;-65
2022/12/29 05:58:11;;;;;;;10.00;5.17;;;;;;;-3.28;100.00;98814.03;5068120;28;20123;-65
2022/12/29 06:00:37;;;;;;;14.37;5.77;;;;;;;-3.19;100.00;98827.72;5063633;28;20048;-65
2022/12/29 06:03:03;;;;;;;12.47;6.80;;;;;;;-3.26;100.00;98837.50;5066398;28;20039;-65
2022/12/29 06:05:29;;;;;;;26.77;10.33;;;;;;;-3.40;100.00;98812.72;5068139;28;20082;-66
2022/12/29 06:07:55;;;;;;;13.80;7.30;;;;;;;-3.29;100.00;98839.88;5064133;28;20080;-65
2022/12/29 06:10:21;;;;;;;9.33;5.57;;;;;;;-3.30;100.00;98844.81;5052978;28;20043;-64
2022/12/29 06:12:54;;;;;;;9.73;5.57;;;;;;;-3.40;100.00;98830.25;5067894;28;20477;-67
2022/12/29 06:15:20;;;;;;;10.60;5.23;;;;;;;-3.33;100.00;98839.72;5063018;28;20060;-65
2022/12/29 06:17:48;;;;;;;12.43;6.27;;;;;;;-3.49;100.00;98809.84;5077891;28;20048;-64
2022/12/29 06:20:14;;;;;;;18.03;7.13;;;;;;;-3.46;100.00;98822.47;5066348;28;20040;-64
2022/12/29 06:22:39;;;;;;;15.47;7.43;;;;;;;-3.37;100.00;98842.91;5060495;28;20775;-64
2022/12/29 06:25:07;;;;;;;19.87;7.77;;;;;;;-3.37;100.00;98841.25;5050714;28;20107;-64
2022/12/29 06:27:34;;;;;;;16.40;7.37;;;;;;;-3.39;100.00;98849.47;5066164;28;20052;-63
2022/12/29 06:29:59;;;;;;;17.67;6.73;;;;;;;-3.42;100.00;98839.34;5052930;28;20043;-64
2022/12/29 06:32:25;;;;;;;13.47;7.87;;;;;;;-3.49;100.00;98843.28;5051923;28;20638;-64
2022/12/29 06:34:53;;;;;;;12.30;7.63;;;;;;;-3.65;100.00;98820.94;5078755;28;20407;-64
2022/12/29 06:37:19;;;;;;;13.00;7.27;;;;;;;-3.41;100.00;98856.09;5061667;28;20033;-61
2022/12/29 06:39:45;;;;;;;13.67;6.77;;;;;;;-3.43;100.00;98855.16;5052036;28;20047;-63
2022/12/29 06:42:13;;;;;;;17.13;7.63;;;;;;;-3.43;100.00;98857.69;5065859;28;20066;-64
2022/12/29 06:45:05;;;;;;;12.80;6.20;;;;;;;-3.46;100.00;98870.09;5057831;28;20064;-61
2022/12/29 06:47:30;;;;;;;23.97;10.03;;;;;;;-3.63;100.00;98841.88;5060986;28;20040;-62
2022/12/29 06:49:56;;;;;;;28.57;14.23;;;;;;;-3.44;100.00;98871.88;5060277;28;20052;-61
2022/12/29 06:52:23;;;;;;;31.50;13.03;;;;;;;-3.53;100.00;98855.63;5061164;28;20040;-62
2022/12/29 06:54:50;;;;;;;34.87;14.97;;;;;;;-3.45;100.00;98866.81;5062091;28;20040;-62
2022/12/29 06:57:15;;;;;;;39.10;14.73;;;;;;;-3.43;100.00;98877.72;5062759;28;20530;-65
2022/12/29 06:59:41;;;;;;;32.57;16.43;;;;;;;-3.43;100.00;98877.72;5062901;28;20080;-63
2022/12/29 07:02:07;;;;;;;22.07;10.77;;;;;;;-3.41;100.00;98886.16;5061649;28;20172;-64
2022/12/29 07:04:32;;;;;;;31.13;13.60;;;;;;;-3.39;100.00;98885.41;5065484;28;20126;-64
2022/12/29 07:06:58;;;;;;;23.47;11.10;;;;;;;-3.40;100.00;98885.38;5069352;28;20049;-65
2022/12/29 07:09:25;;;;;;;21.67;11.50;;;;;;;-3.37;100.00;98877.97;5066075;28;20434;-65
2022/12/29 07:11:51;;;;;;;24.70;13.23;;;;;;;-3.49;100.00;98854.94;5063813;28;20253;-64
2022/12/29 07:14:17;;;;;;;21.57;10.23;;;;;;;-3.38;100.00;98867.09;5059276;28;20061;-63
2022/12/29 07:16:42;;;;;;;19.13;11.63;;;;;;;-3.42;100.00;98854.38;5065246;28;20643;-63
2022/12/29 07:19:08;;;;;;;23.27;11.37;;;;;;;-3.23;100.00;98876.88;5066726;28;20048;-63
2022/12/29 07:21:33;;;;;;;21.20;11.47;;;;;;;-3.18;100.00;98882.06;5057260;28;20036;-63
2022/12/29 07:23:59;;;;;;;24.67;13.27;;;;;;;-3.12;100.00;98880.63;5060742;28;20109;-64
2022/12/29 07:26:24;;;;;;;27.53;14.47;;;;;;;-3.03;100.00;98875.13;5060440;28;20040;-65
2022/12/29 07:28:50;;;;;;;41.97;17.00;;;;;;;-2.88;100.00;98866.50;5061608;28;20536;-65
2022/12/29 07:31:19;;;;;;;70.00;17.40;;;;;;;-2.87;100.00;98857.34;5062199;28;20051;-63
2022/12/29 07:33:45;;;;;;;88.20;22.10;;;;;;;-2.82;100.00;98856.72;5061892;28;20040;-66
2022/12/29 07:36:12;;;;;;;113.37;23.40;;;;;;;-2.61;100.00;98874.22;5063234;28;20044;-65
2022/12/29 07:38:38;;;;;;;119.03;24.53;;;;;;;-2.58;100.00;98858.41;5056923;28;20070;-62
2022/12/29 07:41:04;;;;;;;82.93;20.60;;;;;;;-2.34;100.00;98875.22;5056851;28;20538;-63
2022/12/29 07:43:29;;;;;;;166.30;31.17;;;;;;;-2.44;100.00;98855.59;5056749;28;20037;-63
2022/12/29 07:46:19;;;;;;;181.77;29.00;;;;;;;-2.34;100.00;98864.31;5056970;28;20051;-62
2022/12/29 07:48:45;;;;;;;171.00;27.13;;;;;;;-2.33;100.00;98863.47;5058154;28;20415;-63
2022/12/29 07:51:11;;;;;;;155.43;30.07;;;;;;;-2.21;100.00;98858.06;5060201;28;20076;-63
2022/12/29 07:53:36;;;;;;;238.90;31.00;;;;;;;-2.03;100.00;98883.78;5056505;28;20036;-63
2022/12/29 07:56:02;;;;;;;85.33;23.00;;;;;;;-1.96;100.00;98875.69;5058553;28;20426;-62
2022/12/29 07:58:28;;;;;;;172.97;28.33;;;;;;;-1.91;100.00;98880.03;5060281;28;20052;-63
2022/12/29 08:00:58;;;;;;;171.30;27.73;;;;;;;-1.83;100.00;98881.97;5058336;28;20052;-64
2022/12/29 08:03:25;;;;;;;85.07;19.63;;;;;;;-2.02;100.00;98856.22;5061558;28;20128;-62
2022/12/29 08:05:51;;;;;;;151.63;23.13;;;;;;;-1.82;100.00;98887.03;5061180;28;20044;-65
2022/12/29 08:08:16;;;;;;;180.70;25.97;;;;;;;-1.91;100.00;98862.44;5060465;28;20045;-64
2022/12/29 08:10:42;;;;;;;206.80;29.73;;;;;;;-1.71;100.00;98887.41;5060509;28;20040;-64
2022/12/29 08:13:17;;;;;;;205.23;28.33;;;;;;;-1.82;100.00;98861.91;5064118;28;20056;-64
2022/12/29 08:15:43;;;;;;;175.63;28.50;;;;;;;-1.69;100.00;98868.19;5062139;28;20043;-65
2022/12/29 08:18:08;;;;;;;214.50;30.07;;;;;;;-1.70;100.00;98853.94;5061972;28;20506;-64
2022/12/29 08:20:34;;;;;;;224.07;31.03;;;;;;;-1.56;100.00;98873.66;5057872;28;20052;-64
2022/12/29 08:23:00;;;;;;;140.07;28.47;;;;;;;-1.50;100.00;98857.94;5060205;28;20036;-63
2022/12/29 08:25:25;;;;;;;63.97;23.43;;;;;;;-1.21;100.00;98887.38;5060055;28;20052;-65
2022/12/29 08:27:51;;;;;;;84.10;25.40;;;;;;;-1.08;100.00;98876.03;5055816;28;20109;-65
2022/12/29 08:30:16;;;;;;;114.87;27.17;;;;;;;-0.99;100.00;98876.31;5057223;28;20044;-65
2022/12/29 08:32:42;;;;;;;102.47;28.63;;;;;;;-0.96;100.00;98856.25;5054383;28;20040;-63
2022/12/29 08:35:08;;;;;;;195.10;33.00;;;;;;;-0.77;100.00;98877.81;5054975;28;20047;-62
2022/12/29 08:37:34;;;;;;;143.40;31.47;;;;;;;-0.67;100.00;98875.56;5063746;28;20055;-63
2022/12/29 08:40:03;;;;;;;103.27;25.40;;;;;;;-0.59;100.00;98866.56;5062627;28;20041;-65
2022/12/29 08:42:30;;;;;;;86.13;23.03;;;;;;;-0.53;100.00;98873.47;5062000;28;20043;-63
2022/12/29 08:45:00;;;;;;;178.47;27.23;;;;;;;-0.64;100.00;98880.72;5066621;28;20372;-63
2022/12/29 08:47:25;;;;;;;116.63;22.43;;;;;;;-0.55;100.00;98870.88;5062219;28;20049;-63
2022/12/29 08:49:51;;;;;;;190.70;27.07;;;;;;;-0.73;100.00;98877.94;5062586;28;20037;-63
2022/12/29 08:52:17;;;;;;;170.63;25.60;;;;;;;-0.75;100.00;98858.53;5057613;28;20538;-62
2022/12/29 08:54:43;;;;;;;62.33;20.03;;;;;;;-0.59;100.00;98859.03;5062320;28;20058;-64
2022/12/29 08:57:09;;;;;;;112.60;22.33;;;;;;;-0.58;100.00;98869.94;5062162;28;20475;-63
2022/12/29 08:59:40;;;;;;;59.50;19.40;;;;;;;-0.72;100.00;98869.56;5067692;28;20436;-63
2022/12/29 09:02:12;;;;;;;175.23;25.17;;;;;;;-0.76;100.00;98866.91;5067774;28;20079;-64
2022/12/29 09:04:37;;;;;;;83.90;21.07;;;;;;;-0.70;100.00;98869.59;5057364;28;20368;-64
2022/12/29 09:07:03;;;;;;;47.83;18.33;;;;;;;-0.42;100.00;98854.47;5048003;28;20347;-62
2022/12/29 09:09:32;;;;;;;84.37;20.77;;;;;;;0.18;100.00;98846.81;5063460;28;20680;-64
2022/12/29 09:11:57;;;;;;;92.37;20.07;;;;;;;0.25;100.00;98877.28;5065869;28;20043;-63
2022/12/29 09:14:23;;;;;;;60.13;17.67;;;;;;;0.18;100.00;98859.41;5061308;28;20410;-63
2022/12/29 09:19:35;;;;;;;62.17;19.27;;;;;;;0.11;100.00;98866.00;5068147;28;20059;-63
2022/12/29 09:22:01;;;;;;;86.43;18.07;;;;;;;-0.05;100.00;98851.28;5063162;28;20040;-63
2022/12/29 09:24:27;;;;;;;85.53;21.20;;;;;;;-0.05;100.00;98828.59;5062316;28;20055;-63
2022/12/29 09:26:52;;;;;;;84.03;18.63;;;;;;;-0.08;100.00;98831.03;5067663;28;20045;-63
2022/12/29 09:29:18;;;;;;;132.53;20.93;;;;;;;-0.15;100.00;98819.09;5062670;28;20179;-64
2022/12/29 09:31:44;;;;;;;53.03;18.13;;;;;;;0.15;100.00;98839.19;5065563;28;20032;-63
2022/12/29 09:34:09;;;;;;;43.47;16.40;;;;;;;0.39;100.00;98845.69;5062941;28;20363;-63
2022/12/29 09:36:35;;;;;;;118.87;21.60;;;;;;;0.34;100.00;98842.19;5062611;28;20186;-63
2022/12/29 09:39:01;;;;;;;124.13;19.80;;;;;;;0.28;100.00;98841.19;5065568;28;20048;-64
2022/12/29 09:41:35;;;;;;;84.20;19.80;;;;;;;0.21;100.00;98807.41;5065233;28;20045;-62
2022/12/29 09:44:11;;;;;;;65.87;18.63;;;;;;;0.68;100.00;98838.81;5048714;28;20043;-62
2022/12/29 09:46:42;;;;;;;58.27;17.97;;;;;;;1.20;100.00;98824.81;5062571;28;20049;-62
2022/12/29 09:49:24;;;;;;;86.27;18.17;;;;;;;0.89;100.00;98824.16;5063393;28;20528;-63
2022/12/29 09:51:53;;;;;;;44.63;18.30;;;;;;;1.06;100.00;98819.47;5063173;28;20607;-63
2022/12/29 09:54:40;;;;;;;55.10;18.73;;;;;;;1.47;100.00;98820.34;5063525;28;20083;-63
2022/12/29 09:57:25;;;;;;;32.73;14.70;;;;;;;2.29;100.00;98825.22;5062336;28;20067;-64
2022/12/29 09:59:57;;;;;;;29.60;13.43;;;;;;;2.79;100.00;98824.31;5061075;28;20063;-64
2022/12/29 10:02:42;;;;;;;66.03;15.97;;;;;;;2.15;100.00;98808.13;5058794;28;20046;-65
2022/12/29 10:05:37;;;;;;;37.85;16.20;;;;;;;1.85;100.00;98810.97;5062018;28;20105;-65
2022/12/29 10:08:19;;;;;;;23.65;11.05;;;;;;;1.73;100.00;98803.16;5064764;28;20133;-63
2022/12/29 10:10:56;;;;;;;31.40;15.00;;;;;;;1.56;100.00;98805.38;5060339;28;20036;-64
2022/12/29 10:13:34;;;;;;;31.17;14.27;;;;;;;0.94;100.00;98801.53;5063445;28;20554;-63
2022/12/29 10:16:16;;;;;;;30.50;14.57;;;;;;;1.17;100.00;98789.41;5064124;28;20072;-63
2022/12/29 10:19:00;;;;;;;35.93;14.73;;;;;;;1.18;100.00;98791.97;5061288;28;20476;-65
2022/12/29 10:21:59;;;;;;;34.97;14.87;;;;;;;0.91;100.00;98791.38;5058659;28;20083;-63
2022/12/29 10:24:27;;;;;;;35.83;15.57;;;;;;;0.89;100.00;98786.28;5039750;28;20044;-65
2022/12/29 10:26:56;;;;;;;36.87;16.17;;;;;;;0.90;100.00;98798.09;5063400;28;20049;-63
2022/12/29 10:29:27;;;;;;;36.10;15.27;;;;;;;0.95;100.00;98783.06;5068239;28;20029;-65
2022/12/29 10:32:16;;;;;;;40.90;17.10;;;;;;;0.76;100.00;98778.44;5063948;28;20048;-65
2022/12/29 10:34:47;;;;;;;33.60;17.70;;;;;;;1.03;100.00;98790.78;5062515;28;20040;-64
2022/12/29 10:37:28;;;;;;;27.47;16.23;;;;;;;0.85;100.00;98771.06;5064359;28;20488;-63
2022/12/29 10:39:55;;;;;;;26.70;16.27;;;;;;;1.18;100.00;98786.94;5059112;28;20036;-62
2022/12/29 10:42:28;;;;;;;32.83;16.60;;;;;;;1.30;100.00;98788.84;5063915;28;20043;-62
2022/12/29 10:44:58;;;;;;;30.77;16.30;;;;;;;1.43;100.00;98790.78;5063114;28;20041;-62
2022/12/29 10:47:29;;;;;;;26.87;16.70;;;;;;;1.42;100.00;98773.06;5061295;28;20395;-63
2022/12/29 10:49:55;;;;;;;33.80;16.27;;;;;;;1.36;100.00;98767.06;5063081;28;20128;-63
2022/12/29 10:52:23;;;;;;;29.40;14.97;;;;;;;1.55;100.00;98775.88;5047599;28;20413;-63
2022/12/29 10:54:56;;;;;;;26.87;15.43;;;;;;;1.51;100.00;98755.56;5060274;28;20060;-62
2022/12/29 10:57:41;;;;;;;29.97;15.57;;;;;;;1.54;100.00;98766.56;5061133;28;20036;-63
2022/12/29 11:00:21;;;;;;;22.93;13.13;;;;;;;1.47;100.00;98759.72;5062225;28;20075;-62
2022/12/29 11:02:49;;;;;;;29.43;16.07;;;;;;;1.69;100.00;98782.03;5062452;28;20307;-62
2022/12/29 11:05:41;;;;;;;24.53;14.83;;;;;;;1.81;100.00;98766.25;5063550;28;20569;-61
2022/12/29 11:08:17;;;;;;;27.80;16.17;;;;;;;1.65;100.00;98760.06;5060377;28;20585;-62
2022/12/29 11:10:45;;;;;;;28.80;16.80;;;;;;;1.94;100.00;98774.88;5059149;28;20036;-63
2022/12/29 11:13:17;;;;;;;28.07;15.23;;;;;;;2.12;100.00;98775.19;5061377;28;20093;-62
2022/12/29 11:15:48;;;;;;;23.93;14.33;;;;;;;2.18;100.00;98762.63;5063179;28;20036;-62
2022/12/29 11:18:33;;;;;;;24.60;15.53;;;;;;;2.25;100.00;98777.06;5047959;28;20405;-62
2022/12/29 11:21:02;;;;;;;21.77;13.90;;;;;;;2.40;100.00;98784.06;5055524;28;20159;-62
2022/12/29 11:23:34;;;;;;;22.73;15.23;;;;;;;2.53;100.00;98786.81;5063249;28;20112;-62
2022/12/29 11:26:22;;;;;;;22.87;13.87;;;;;;;2.57;100.00;98790.25;5062208;28;20033;-61
2022/12/29 11:29:16;;;;;;;21.50;13.30;;;;;;;2.65;100.00;98768.44;5060233;28;20040;-63
2022/12/29 11:31:54;;;;;;;23.57;12.37;;;;;;;2.84;100.00;98783.06;5060971;28;20170;-63
2022/12/29 11:34:20;;;;;;;26.77;14.13;;;;;;;2.80;100.00;98771.16;5058518;28;20048;-63
2022/12/29 11:36:47;;;;;;;21.97;12.97;;;;;;;3.03;100.00;98764.75;5054983;28;20041;-64
2022/12/29 11:39:50;;;;;;;23.47;14.03;;;;;;;2.93;100.00;98762.91;5056074;28;20037;-63
2022/12/29 11:42:19;;;;;;;28.57;13.77;;;;;;;2.71;100.00;98760.94;5035118;28;20056;-64
2022/12/29 11:44:47;;;;;;;25.10;13.23;;;;;;;2.78;100.00;98747.53;5062132;28;20041;-64
2022/12/29 11:47:28;;;;;;;28.80;13.43;;;;;;;3.02;100.00;98765.56;5057311;28;20040;-64
2022/12/29 11:49:58;;;;;;;27.03;13.60;;;;;;;2.89;100.00;98761.16;5056506;28;20154;-63
2022/12/29 11:52:28;;;;;;;31.50;14.47;;;;;;;2.37;100.00;98746.94;5066659;28;20114;-64
2022/12/29 11:54:55;;;;;;;22.43;13.23;;;;;;;2.56;100.00;98733.72;5061703;28;20040;-64
2022/12/29 11:57:23;;;;;;;35.13;16.80;;;;;;;2.76;100.00;98744.09;5062855;28;20040;-64
2022/12/29 11:59:57;;;;;;;32.57;15.37;;;;;;;2.78;100.00;98759.31;5061951;28;20044;-63
2022/12/29 12:02:44;;;;;;;32.57;16.63;;;;;;;2.44;100.00;98743.66;5060989;28;20037;-63
2022/12/29 12:05:20;;;;;;;46.33;17.27;;;;;;;2.55;100.00;98754.78;5062280;28;20395;-64
2022/12/29 12:07:51;;;;;;;32.53;16.93;;;;;;;2.47;100.00;98761.41;5058751;28;20392;-64
2022/12/29 12:10:26;;;;;;;31.47;17.30;;;;;;;2.63;100.00;98743.09;5059221;28;20048;-64